sensor_id;sensor_type;location;lat;lon;timestamp;P1;P2;P0
36453;PMS5003;22478;51.740;-1.314;2023-08-01T00:00:57;15;12;
36453;PMS5003;22478;51.740;-1.314;2023-08-01T00:03:25;12;8;
36453;PMS5003;22478;51.740;-1.314;2023-08-01T00:05:52;11;8;
36453;PMS5003;22478;51.740;-1.314;2023-08-01T00:08:19;14;12;
36453;PMS5003;22478;51.740;-1.314;2023-08-01T00:10:46;12;10;
36453;PMS5003;22478;51.740;-1.314;2023-08-01T00:13:14;13;11;
36453;PMS5003;22478;51.740;-1.314;2023-08-01T00:15:41;11;10;
36453;PMS5003;22478;51.740;-1.314;2023-08-01T00:18:08;8;7;
36453;PMS5003;22478;51.740;-1.314;2023-08-01T00:20:36;9;9;
36453;PMS5003;22478;51.740;-1.314;2023-08-01T00:23:03;11;9;
36453;PMS5003;22478;51.740;-1.314;2023-08-01T00:25:30;11;10;
36453;PMS5003;22478;51.740;-1.314;2023-08-01T00:27:57;7;7;
36453;PMS5003;22478;51.740;-1.314;2023-08-01T00:30:24;9;9;
36453;PMS5003;22478;51.740;-1.314;2023-08-01T00:32:52;13;11;
36453;PMS5003;22478;51.740;-1.314;2023-08-01T00:35:19;12;9;
36453;PMS5003;22478;51.740;-1.314;2023-08-01T00:37:47;11;10;
36453;PMS5003;22478;51.740;-1.314;2023-08-01T00:40:14;10;10;
36453;PMS5003;22478;51.740;-1.314;2023-08-01T00:42:41;8;7;
36453;PMS5003;22478;51.740;-1.314;2023-08-01T00:45:08;11;9;
36453;PMS5003;22478;51.740;-1.314;2023-08-01T00:47:36;12;9;
36453;PMS5003;22478;51.740;-1.314;2023-08-01T00:50:04;14;12;
36453;PMS5003;22478;51.740;-1.314;2023-08-01T00:52:33;12;11;
36453;PMS5003;22478;51.740;-1.314;2023-08-01T00:55:00;11;10;
36453;PMS5003;22478;51.740;-1.314;2023-08-01T00:57:28;15;11;
36453;PMS5003;22478;51.740;-1.314;2023-08-01T00:59:56;10;7;
36453;PMS5003;22478;51.740;-1.314;2023-08-01T01:02:24;13;9;
36453;PMS5003;22478;51.740;-1.314;2023-08-01T01:04:52;14;14;
36453;PMS5003;22478;51.740;-1.314;2023-08-01T01:07:19;15;14;
36453;PMS5003;22478;51.740;-1.314;2023-08-01T01:09:48;10;7;
36453;PMS5003;22478;51.740;-1.314;2023-08-01T01:12:15;13;12;
36453;PMS5003;22478;51.740;-1.314;2023-08-01T01:14:43;12;9;
36453;PMS5003;22478;51.740;-1.314;2023-08-01T01:17:10;18;17;
36453;PMS5003;22478;51.740;-1.314;2023-08-01T01:19:37;17;14;
36453;PMS5003;22478;51.740;-1.314;2023-08-01T01:22:05;20;18;
36453;PMS5003;22478;51.740;-1.314;2023-08-01T01:24:34;19;15;
36453;PMS5003;22478;51.740;-1.314;2023-08-01T01:27:03;18;16;
36453;PMS5003;22478;51.740;-1.314;2023-08-01T01:29:32;30;27;
36453;PMS5003;22478;51.740;-1.314;2023-08-01T01:32:01;25;21;
36453;PMS5003;22478;51.740;-1.314;2023-08-01T01:34:29;21;17;
36453;PMS5003;22478;51.740;-1.314;2023-08-01T01:36:57;32;31;
36453;PMS5003;22478;51.740;-1.314;2023-08-01T01:39:24;23;20;
36453;PMS5003;22478;51.740;-1.314;2023-08-01T01:41:52;22;21;
36453;PMS5003;22478;51.740;-1.314;2023-08-01T01:44:19;18;17;
36453;PMS5003;22478;51.740;-1.314;2023-08-01T01:46:47;32;28;
36453;PMS5003;22478;51.740;-1.314;2023-08-01T01:49:13;22;18;
36453;PMS5003;22478;51.740;-1.314;2023-08-01T01:51:40;17;15;
36453;PMS5003;22478;51.740;-1.314;2023-08-01T01:54:08;15;14;
36453;PMS5003;22478;51.740;-1.314;2023-08-01T01:56:35;18;16;
36453;PMS5003;22478;51.740;-1.314;2023-08-01T01:59:02;23;20;
36453;PMS5003;22478;51.740;-1.314;2023-08-01T02:01:29;13;13;
36453;PMS5003;22478;51.740;-1.314;2023-08-01T02:03:56;23;20;
36453;PMS5003;22478;51.740;-1.314;2023-08-01T02:06:23;31;26;
36453;PMS5003;22478;51.740;-1.314;2023-08-01T02:08:51;15;14;
36453;PMS5003;22478;51.740;-1.314;2023-08-01T02:11:18;16;14;
36453;PMS5003;22478;51.740;-1.314;2023-08-01T02:13:45;15;11;
36453;PMS5003;22478;51.740;-1.314;2023-08-01T02:16:12;13;13;
36453;PMS5003;22478;51.740;-1.314;2023-08-01T02:18:39;18;18;
36453;PMS5003;22478;51.740;-1.314;2023-08-01T02:21:07;21;21;
36453;PMS5003;22478;51.740;-1.314;2023-08-01T02:23:34;13;13;
36453;PMS5003;22478;51.740;-1.314;2023-08-01T02:26:01;14;14;
36453;PMS5003;22478;51.740;-1.314;2023-08-01T02:28:28;17;15;
36453;PMS5003;22478;51.740;-1.314;2023-08-01T02:30:56;20;17;
36453;PMS5003;22478;51.740;-1.314;2023-08-01T02:33:23;22;18;
36453;PMS5003;22478;51.740;-1.314;2023-08-01T02:35:50;32;29;
36453;PMS5003;22478;51.740;-1.314;2023-08-01T02:38:17;19;19;
36453;PMS5003;22478;51.740;-1.314;2023-08-01T02:40:44;20;20;
36453;PMS5003;22478;51.740;-1.314;2023-08-01T02:43:12;36;35;
36453;PMS5003;22478;51.740;-1.314;2023-08-01T02:45:39;28;28;
36453;PMS5003;22478;51.740;-1.314;2023-08-01T02:48:08;21;20;
36453;PMS5003;22478;51.740;-1.314;2023-08-01T02:50:35;29;26;
36453;PMS5003;22478;51.740;-1.314;2023-08-01T02:53:02;16;14;
36453;PMS5003;22478;51.740;-1.314;2023-08-01T02:55:31;20;14;
36453;PMS5003;22478;51.740;-1.314;2023-08-01T02:57:58;17;16;
36453;PMS5003;22478;51.740;-1.314;2023-08-01T03:00:25;20;17;
36453;PMS5003;22478;51.740;-1.314;2023-08-01T03:02:52;17;17;
36453;PMS5003;22478;51.740;-1.314;2023-08-01T03:05:19;18;15;
36453;PMS5003;22478;51.740;-1.314;2023-08-01T03:07:46;16;15;
36453;PMS5003;22478;51.740;-1.314;2023-08-01T03:10:14;15;13;
36453;PMS5003;22478;51.740;-1.314;2023-08-01T03:12:41;22;19;
36453;PMS5003;22478;51.740;-1.314;2023-08-01T03:15:09;20;20;
36453;PMS5003;22478;51.740;-1.314;2023-08-01T03:17:36;17;16;
36453;PMS5003;22478;51.740;-1.314;2023-08-01T03:20:03;12;10;
36453;PMS5003;22478;51.740;-1.314;2023-08-01T03:22:31;20;19;
36453;PMS5003;22478;51.740;-1.314;2023-08-01T03:24:58;18;15;
36453;PMS5003;22478;51.740;-1.314;2023-08-01T03:27:25;25;20;
36453;PMS5003;22478;51.740;-1.314;2023-08-01T03:29:53;23;22;
36453;PMS5003;22478;51.740;-1.314;2023-08-01T03:32:20;22;20;
36453;PMS5003;22478;51.740;-1.314;2023-08-01T03:34:48;15;14;
36453;PMS5003;22478;51.740;-1.314;2023-08-01T03:37:15;14;14;
36453;PMS5003;22478;51.740;-1.314;2023-08-01T03:39:44;18;17;
36453;PMS5003;22478;51.740;-1.314;2023-08-01T03:42:11;17;16;
36453;PMS5003;22478;51.740;-1.314;2023-08-01T03:44:38;13;12;
36453;PMS5003;22478;51.740;-1.314;2023-08-01T03:47:05;17;17;
36453;PMS5003;22478;51.740;-1.314;2023-08-01T03:49:32;31;29;
36453;PMS5003;22478;51.740;-1.314;2023-08-01T03:52:00;21;21;
36453;PMS5003;22478;51.740;-1.314;2023-08-01T03:54:27;34;29;
36453;PMS5003;22478;51.740;-1.314;2023-08-01T03:56:54;14;13;
36453;PMS5003;22478;51.740;-1.314;2023-08-01T03:59:21;14;14;
36453;PMS5003;22478;51.740;-1.314;2023-08-01T04:01:49;19;17;
36453;PMS5003;22478;51.740;-1.314;2023-08-01T04:04:17;12;10;
36453;PMS5003;22478;51.740;-1.314;2023-08-01T04:06:49;9;6;
36453;PMS5003;22478;51.740;-1.314;2023-08-01T04:09:16;5;4;
36453;PMS5003;22478;51.740;-1.314;2023-08-01T04:11:43;7;6;
36453;PMS5003;22478;51.740;-1.314;2023-08-01T04:14:10;8;8;
36453;PMS5003;22478;51.740;-1.314;2023-08-01T04:16:39;5;5;
36453;PMS5003;22478;51.740;-1.314;2023-08-01T04:19:06;7;4;
36453;PMS5003;22478;51.740;-1.314;2023-08-01T04:21:33;6;6;
36453;PMS5003;22478;51.740;-1.314;2023-08-01T04:24:00;4;4;
36453;PMS5003;22478;51.740;-1.314;2023-08-01T04:26:27;5;4;
36453;PMS5003;22478;51.740;-1.314;2023-08-01T04:28:54;5;5;
36453;PMS5003;22478;51.740;-1.314;2023-08-01T04:31:21;6;4;
36453;PMS5003;22478;51.740;-1.314;2023-08-01T04:33:48;7;5;
36453;PMS5003;22478;51.740;-1.314;2023-08-01T04:36:15;4;3;
36453;PMS5003;22478;51.740;-1.314;2023-08-01T04:38:42;3;3;
36453;PMS5003;22478;51.740;-1.314;2023-08-01T04:41:09;4;4;
36453;PMS5003;22478;51.740;-1.314;2023-08-01T04:43:36;7;5;
36453;PMS5003;22478;51.740;-1.314;2023-08-01T04:46:03;18;17;
36453;PMS5003;22478;51.740;-1.314;2023-08-01T04:48:30;17;17;
36453;PMS5003;22478;51.740;-1.314;2023-08-01T04:50:57;16;16;
36453;PMS5003;22478;51.740;-1.314;2023-08-01T04:53:24;14;14;
36453;PMS5003;22478;51.740;-1.314;2023-08-01T04:55:52;18;15;
36453;PMS5003;22478;51.740;-1.314;2023-08-01T04:58:19;21;19;
36453;PMS5003;22478;51.740;-1.314;2023-08-01T05:00:46;18;15;
36453;PMS5003;22478;51.740;-1.314;2023-08-01T05:03:13;10;7;
36453;PMS5003;22478;51.740;-1.314;2023-08-01T05:05:40;4;4;
36453;PMS5003;22478;51.740;-1.314;2023-08-01T05:08:07;6;6;
36453;PMS5003;22478;51.740;-1.314;2023-08-01T05:10:34;13;10;
36453;PMS5003;22478;51.740;-1.314;2023-08-01T05:13:01;9;7;
36453;PMS5003;22478;51.740;-1.314;2023-08-01T05:15:29;6;4;
36453;PMS5003;22478;51.740;-1.314;2023-08-01T05:17:56;6;6;
36453;PMS5003;22478;51.740;-1.314;2023-08-01T05:20:23;18;16;
36453;PMS5003;22478;51.740;-1.314;2023-08-01T05:22:50;15;13;
36453;PMS5003;22478;51.740;-1.314;2023-08-01T05:25:18;14;14;
36453;PMS5003;22478;51.740;-1.314;2023-08-01T05:27:44;14;14;
36453;PMS5003;22478;51.740;-1.314;2023-08-01T05:30:12;15;15;
36453;PMS5003;22478;51.740;-1.314;2023-08-01T05:32:39;8;8;
36453;PMS5003;22478;51.740;-1.314;2023-08-01T05:35:07;12;12;
36453;PMS5003;22478;51.740;-1.314;2023-08-01T05:37:39;19;19;
36453;PMS5003;22478;51.740;-1.314;2023-08-01T05:40:06;6;6;
36453;PMS5003;22478;51.740;-1.314;2023-08-01T05:42:34;6;6;
36453;PMS5003;22478;51.740;-1.314;2023-08-01T05:45:01;7;5;
36453;PMS5003;22478;51.740;-1.314;2023-08-01T05:47:29;4;4;
36453;PMS5003;22478;51.740;-1.314;2023-08-01T05:49:57;5;4;
36453;PMS5003;22478;51.740;-1.314;2023-08-01T05:52:24;2;2;
36453;PMS5003;22478;51.740;-1.314;2023-08-01T05:54:51;4;4;
36453;PMS5003;22478;51.740;-1.314;2023-08-01T05:57:18;5;5;
36453;PMS5003;22478;51.740;-1.314;2023-08-01T05:59:46;7;3;
36453;PMS5003;22478;51.740;-1.314;2023-08-01T06:02:13;5;3;
36453;PMS5003;22478;51.740;-1.314;2023-08-01T06:04:40;5;3;
36453;PMS5003;22478;51.740;-1.314;2023-08-01T06:07:07;4;3;
36453;PMS5003;22478;51.740;-1.314;2023-08-01T06:09:34;5;3;
36453;PMS5003;22478;51.740;-1.314;2023-08-01T06:12:01;4;4;
36453;PMS5003;22478;51.740;-1.314;2023-08-01T06:14:28;5;3;
36453;PMS5003;22478;51.740;-1.314;2023-08-01T06:16:55;6;4;
36453;PMS5003;22478;51.740;-1.314;2023-08-01T06:19:22;4;2;
36453;PMS5003;22478;51.740;-1.314;2023-08-01T06:21:50;4;2;
36453;PMS5003;22478;51.740;-1.314;2023-08-01T06:24:16;2;2;
36453;PMS5003;22478;51.740;-1.314;2023-08-01T06:26:44;4;2;
36453;PMS5003;22478;51.740;-1.314;2023-08-01T06:29:11;3;2;
36453;PMS5003;22478;51.740;-1.314;2023-08-01T06:31:38;3;3;
36453;PMS5003;22478;51.740;-1.314;2023-08-01T06:34:05;5;2;
36453;PMS5003;22478;51.740;-1.314;2023-08-01T06:36:32;4;3;
36453;PMS5003;22478;51.740;-1.314;2023-08-01T06:38:59;3;3;
36453;PMS5003;22478;51.740;-1.314;2023-08-01T06:41:27;2;2;
36453;PMS5003;22478;51.740;-1.314;2023-08-01T06:43:54;2;2;
36453;PMS5003;22478;51.740;-1.314;2023-08-01T06:46:21;2;2;
36453;PMS5003;22478;51.740;-1.314;2023-08-01T06:48:49;1;1;
36453;PMS5003;22478;51.740;-1.314;2023-08-01T06:51:16;2;1;
36453;PMS5003;22478;51.740;-1.314;2023-08-01T06:53:43;1;0;
36453;PMS5003;22478;51.740;-1.314;2023-08-01T06:56:10;4;3;
36453;PMS5003;22478;51.740;-1.314;2023-08-01T06:58:37;3;3;
36453;PMS5003;22478;51.740;-1.314;2023-08-01T07:01:04;4;2;
36453;PMS5003;22478;51.740;-1.314;2023-08-01T07:03:31;5;3;
36453;PMS5003;22478;51.740;-1.314;2023-08-01T07:05:58;2;2;
36453;PMS5003;22478;51.740;-1.314;2023-08-01T07:08:25;8;5;
36453;PMS5003;22478;51.740;-1.314;2023-08-01T07:10:58;5;5;
36453;PMS5003;22478;51.740;-1.314;2023-08-01T07:13:25;3;1;
36453;PMS5003;22478;51.740;-1.314;2023-08-01T07:15:52;2;2;
36453;PMS5003;22478;51.740;-1.314;2023-08-01T07:18:19;5;3;
36453;PMS5003;22478;51.740;-1.314;2023-08-01T07:20:46;2;1;
36453;PMS5003;22478;51.740;-1.314;2023-08-01T07:23:13;2;2;
36453;PMS5003;22478;51.740;-1.314;2023-08-01T07:25:40;2;2;
36453;PMS5003;22478;51.740;-1.314;2023-08-01T07:28:07;5;4;
36453;PMS5003;22478;51.740;-1.314;2023-08-01T07:30:34;2;2;
36453;PMS5003;22478;51.740;-1.314;2023-08-01T07:33:01;4;4;
36453;PMS5003;22478;51.740;-1.314;2023-08-01T07:35:29;4;3;
36453;PMS5003;22478;51.740;-1.314;2023-08-01T07:37:56;2;2;
36453;PMS5003;22478;51.740;-1.314;2023-08-01T07:40:23;3;3;
36453;PMS5003;22478;51.740;-1.314;2023-08-01T07:42:50;5;4;
36453;PMS5003;22478;51.740;-1.314;2023-08-01T07:45:17;3;3;
36453;PMS5003;22478;51.740;-1.314;2023-08-01T07:47:44;2;2;
36453;PMS5003;22478;51.740;-1.314;2023-08-01T07:50:11;4;3;
36453;PMS5003;22478;51.740;-1.314;2023-08-01T07:52:38;2;2;
36453;PMS5003;22478;51.740;-1.314;2023-08-01T07:55:06;1;1;
36453;PMS5003;22478;51.740;-1.314;2023-08-01T07:57:33;1;1;
36453;PMS5003;22478;51.740;-1.314;2023-08-01T08:00:00;3;3;
36453;PMS5003;22478;51.740;-1.314;2023-08-01T08:02:27;3;3;
36453;PMS5003;22478;51.740;-1.314;2023-08-01T08:04:54;5;2;
36453;PMS5003;22478;51.740;-1.314;2023-08-01T08:07:21;2;2;
36453;PMS5003;22478;51.740;-1.314;2023-08-01T08:09:49;3;2;
36453;PMS5003;22478;51.740;-1.314;2023-08-01T08:12:16;8;8;
36453;PMS5003;22478;51.740;-1.314;2023-08-01T08:14:43;8;8;
36453;PMS5003;22478;51.740;-1.314;2023-08-01T08:17:10;4;4;
36453;PMS5003;22478;51.740;-1.314;2023-08-01T08:19:37;7;7;
36453;PMS5003;22478;51.740;-1.314;2023-08-01T08:22:04;2;2;
36453;PMS5003;22478;51.740;-1.314;2023-08-01T08:24:31;2;2;
36453;PMS5003;22478;51.740;-1.314;2023-08-01T08:26:58;2;2;
36453;PMS5003;22478;51.740;-1.314;2023-08-01T08:29:25;1;1;
36453;PMS5003;22478;51.740;-1.314;2023-08-01T08:31:52;2;1;
36453;PMS5003;22478;51.740;-1.314;2023-08-01T08:34:24;1;1;
36453;PMS5003;22478;51.740;-1.314;2023-08-01T08:36:52;1;1;
36453;PMS5003;22478;51.740;-1.314;2023-08-01T08:39:19;1;1;
36453;PMS5003;22478;51.740;-1.314;2023-08-01T08:41:47;0;0;
36453;PMS5003;22478;51.740;-1.314;2023-08-01T08:44:15;0;0;
36453;PMS5003;22478;51.740;-1.314;2023-08-01T08:46:44;1;1;
36453;PMS5003;22478;51.740;-1.314;2023-08-01T08:49:17;0;0;
36453;PMS5003;22478;51.740;-1.314;2023-08-01T08:51:46;2;2;
36453;PMS5003;22478;51.740;-1.314;2023-08-01T08:54:15;1;1;
36453;PMS5003;22478;51.740;-1.314;2023-08-01T08:56:43;3;0;
36453;PMS5003;22478;51.740;-1.314;2023-08-01T08:59:11;2;1;
36453;PMS5003;22478;51.740;-1.314;2023-08-01T09:01:38;1;1;
36453;PMS5003;22478;51.740;-1.314;2023-08-01T09:04:06;1;1;
36453;PMS5003;22478;51.740;-1.314;2023-08-01T09:06:34;1;1;
36453;PMS5003;22478;51.740;-1.314;2023-08-01T09:09:11;0;0;
36453;PMS5003;22478;51.740;-1.314;2023-08-01T09:11:41;2;1;
36453;PMS5003;22478;51.740;-1.314;2023-08-01T09:14:11;3;3;
36453;PMS5003;22478;51.740;-1.314;2023-08-01T09:16:39;4;3;
36453;PMS5003;22478;51.740;-1.314;2023-08-01T09:19:07;4;3;
36453;PMS5003;22478;51.740;-1.314;2023-08-01T09:21:36;4;2;
36453;PMS5003;22478;51.740;-1.314;2023-08-01T09:24:08;0;0;
36453;PMS5003;22478;51.740;-1.314;2023-08-01T09:26:36;2;2;
36453;PMS5003;22478;51.740;-1.314;2023-08-01T09:29:03;1;1;
36453;PMS5003;22478;51.740;-1.314;2023-08-01T09:31:32;0;0;
36453;PMS5003;22478;51.740;-1.314;2023-08-01T09:34:02;0;0;
36453;PMS5003;22478;51.740;-1.314;2023-08-01T09:36:30;0;0;
36453;PMS5003;22478;51.740;-1.314;2023-08-01T09:38:58;4;2;
36453;PMS5003;22478;51.740;-1.314;2023-08-01T09:41:26;1;1;
36453;PMS5003;22478;51.740;-1.314;2023-08-01T09:43:54;1;1;
36453;PMS5003;22478;51.740;-1.314;2023-08-01T09:46:22;2;0;
36453;PMS5003;22478;51.740;-1.314;2023-08-01T09:48:50;1;1;
36453;PMS5003;22478;51.740;-1.314;2023-08-01T09:51:18;2;2;
36453;PMS5003;22478;51.740;-1.314;2023-08-01T09:53:46;2;2;
36453;PMS5003;22478;51.740;-1.314;2023-08-01T09:56:15;2;2;
36453;PMS5003;22478;51.740;-1.314;2023-08-01T09:58:44;1;1;
36453;PMS5003;22478;51.740;-1.314;2023-08-01T10:01:12;3;2;
36453;PMS5003;22478;51.740;-1.314;2023-08-01T10:03:42;3;1;
36453;PMS5003;22478;51.740;-1.314;2023-08-01T10:06:12;1;1;
36453;PMS5003;22478;51.740;-1.314;2023-08-01T10:08:43;0;0;
36453;PMS5003;22478;51.740;-1.314;2023-08-01T10:11:11;2;1;
36453;PMS5003;22478;51.740;-1.314;2023-08-01T10:13:41;0;0;
36453;PMS5003;22478;51.740;-1.314;2023-08-01T10:16:08;1;1;
36453;PMS5003;22478;51.740;-1.314;2023-08-01T10:18:36;0;0;
36453;PMS5003;22478;51.740;-1.314;2023-08-01T10:21:05;0;0;
36453;PMS5003;22478;51.740;-1.314;2023-08-01T10:23:33;2;2;
36453;PMS5003;22478;51.740;-1.314;2023-08-01T10:26:01;2;0;
36453;PMS5003;22478;51.740;-1.314;2023-08-01T10:28:31;6;1;
36453;PMS5003;22478;51.740;-1.314;2023-08-01T10:31:07;0;0;
36453;PMS5003;22478;51.740;-1.314;2023-08-01T10:33:36;3;1;
36453;PMS5003;22478;51.740;-1.314;2023-08-01T10:36:12;0;0;
36453;PMS5003;22478;51.740;-1.314;2023-08-01T10:38:44;1;1;
36453;PMS5003;22478;51.740;-1.314;2023-08-01T10:41:21;2;1;
36453;PMS5003;22478;51.740;-1.314;2023-08-01T10:43:51;0;0;
36453;PMS5003;22478;51.740;-1.314;2023-08-01T10:46:19;2;0;
36453;PMS5003;22478;51.740;-1.314;2023-08-01T10:48:48;4;2;
36453;PMS5003;22478;51.740;-1.314;2023-08-01T10:51:16;2;1;
36453;PMS5003;22478;51.740;-1.314;2023-08-01T10:53:44;1;1;
36453;PMS5003;22478;51.740;-1.314;2023-08-01T10:56:15;0;0;
36453;PMS5003;22478;51.740;-1.314;2023-08-01T10:58:43;2;2;
36453;PMS5003;22478;51.740;-1.314;2023-08-01T11:01:11;0;0;
36453;PMS5003;22478;51.740;-1.314;2023-08-01T11:03:39;2;2;
36453;PMS5003;22478;51.740;-1.314;2023-08-01T11:06:06;2;2;
36453;PMS5003;22478;51.740;-1.314;2023-08-01T11:08:34;2;2;
36453;PMS5003;22478;51.740;-1.314;2023-08-01T11:11:03;8;5;
36453;PMS5003;22478;51.740;-1.314;2023-08-01T11:13:32;5;5;
36453;PMS5003;22478;51.740;-1.314;2023-08-01T11:15:59;4;3;
36453;PMS5003;22478;51.740;-1.314;2023-08-01T11:18:26;4;4;
36453;PMS5003;22478;51.740;-1.314;2023-08-01T11:20:54;1;1;
36453;PMS5003;22478;51.740;-1.314;2023-08-01T11:23:27;1;1;
36453;PMS5003;22478;51.740;-1.314;2023-08-01T11:25:55;2;2;
36453;PMS5003;22478;51.740;-1.314;2023-08-01T11:28:23;7;1;
36453;PMS5003;22478;51.740;-1.314;2023-08-01T11:30:50;1;1;
36453;PMS5003;22478;51.740;-1.314;2023-08-01T11:33:18;0;0;
36453;PMS5003;22478;51.740;-1.314;2023-08-01T11:35:49;3;1;
36453;PMS5003;22478;51.740;-1.314;2023-08-01T11:38:17;1;1;
36453;PMS5003;22478;51.740;-1.314;2023-08-01T11:40:45;4;1;
36453;PMS5003;22478;51.740;-1.314;2023-08-01T11:43:13;1;1;
36453;PMS5003;22478;51.740;-1.314;2023-08-01T11:45:47;0;0;
36453;PMS5003;22478;51.740;-1.314;2023-08-01T11:48:16;1;1;
36453;PMS5003;22478;51.740;-1.314;2023-08-01T11:50:43;1;1;
36453;PMS5003;22478;51.740;-1.314;2023-08-01T11:53:17;5;2;
36453;PMS5003;22478;51.740;-1.314;2023-08-01T11:55:44;1;1;
36453;PMS5003;22478;51.740;-1.314;2023-08-01T11:58:12;3;1;
36453;PMS5003;22478;51.740;-1.314;2023-08-01T12:00:40;1;0;
36453;PMS5003;22478;51.740;-1.314;2023-08-01T12:03:08;0;0;
36453;PMS5003;22478;51.740;-1.314;2023-08-01T12:05:42;2;2;
36453;PMS5003;22478;51.740;-1.314;2023-08-01T12:08:09;3;1;
36453;PMS5003;22478;51.740;-1.314;2023-08-01T12:10:37;3;2;
36453;PMS5003;22478;51.740;-1.314;2023-08-01T12:13:06;1;1;
36453;PMS5003;22478;51.740;-1.314;2023-08-01T12:15:33;3;3;
36453;PMS5003;22478;51.740;-1.314;2023-08-01T12:18:00;1;1;
36453;PMS5003;22478;51.740;-1.314;2023-08-01T12:20:28;2;2;
36453;PMS5003;22478;51.740;-1.314;2023-08-01T12:22:54;2;2;
36453;PMS5003;22478;51.740;-1.314;2023-08-01T12:25:21;1;1;
36453;PMS5003;22478;51.740;-1.314;2023-08-01T12:27:49;2;2;
36453;PMS5003;22478;51.740;-1.314;2023-08-01T12:30:17;3;2;
36453;PMS5003;22478;51.740;-1.314;2023-08-01T12:32:44;2;2;
36453;PMS5003;22478;51.740;-1.314;2023-08-01T12:35:12;0;0;
36453;PMS5003;22478;51.740;-1.314;2023-08-01T12:37:39;1;1;
36453;PMS5003;22478;51.740;-1.314;2023-08-01T12:40:07;3;2;
36453;PMS5003;22478;51.740;-1.314;2023-08-01T12:42:34;1;1;
36453;PMS5003;22478;51.740;-1.314;2023-08-01T12:45:02;1;1;
36453;PMS5003;22478;51.740;-1.314;2023-08-01T12:47:30;0;0;
36453;PMS5003;22478;51.740;-1.314;2023-08-01T12:49:57;2;2;
36453;PMS5003;22478;51.740;-1.314;2023-08-01T12:52:25;2;1;
36453;PMS5003;22478;51.740;-1.314;2023-08-01T12:54:53;1;1;
36453;PMS5003;22478;51.740;-1.314;2023-08-01T12:57:21;2;1;
36453;PMS5003;22478;51.740;-1.314;2023-08-01T12:59:48;3;3;
36453;PMS5003;22478;51.740;-1.314;2023-08-01T13:02:16;2;2;
36453;PMS5003;22478;51.740;-1.314;2023-08-01T13:04:42;1;1;
36453;PMS5003;22478;51.740;-1.314;2023-08-01T13:07:09;1;1;
36453;PMS5003;22478;51.740;-1.314;2023-08-01T13:09:37;1;1;
36453;PMS5003;22478;51.740;-1.314;2023-08-01T13:12:05;1;1;
36453;PMS5003;22478;51.740;-1.314;2023-08-01T13:14:33;2;2;
36453;PMS5003;22478;51.740;-1.314;2023-08-01T13:17:01;1;1;
36453;PMS5003;22478;51.740;-1.314;2023-08-01T13:19:28;1;1;
36453;PMS5003;22478;51.740;-1.314;2023-08-01T13:21:56;0;0;
36453;PMS5003;22478;51.740;-1.314;2023-08-01T13:24:24;3;2;
36453;PMS5003;22478;51.740;-1.314;2023-08-01T13:26:51;1;1;
36453;PMS5003;22478;51.740;-1.314;2023-08-01T13:29:18;1;1;
36453;PMS5003;22478;51.740;-1.314;2023-08-01T13:31:46;4;3;
36453;PMS5003;22478;51.740;-1.314;2023-08-01T13:34:13;38;35;
36453;PMS5003;22478;51.740;-1.314;2023-08-01T13:36:40;12;8;
36453;PMS5003;22478;51.740;-1.314;2023-08-01T13:39:08;2;2;
36453;PMS5003;22478;51.740;-1.314;2023-08-01T13:41:35;2;2;
36453;PMS5003;22478;51.740;-1.314;2023-08-01T13:44:03;1;1;
36453;PMS5003;22478;51.740;-1.314;2023-08-01T13:46:31;1;1;
36453;PMS5003;22478;51.740;-1.314;2023-08-01T13:48:58;0;0;
36453;PMS5003;22478;51.740;-1.314;2023-08-01T13:51:26;1;1;
36453;PMS5003;22478;51.740;-1.314;2023-08-01T13:53:53;1;1;
36453;PMS5003;22478;51.740;-1.314;2023-08-01T13:56:20;2;2;
36453;PMS5003;22478;51.740;-1.314;2023-08-01T13:58:47;1;1;
36453;PMS5003;22478;51.740;-1.314;2023-08-01T14:01:13;2;2;
36453;PMS5003;22478;51.740;-1.314;2023-08-01T14:03:41;1;1;
36453;PMS5003;22478;51.740;-1.314;2023-08-01T14:06:08;0;0;
36453;PMS5003;22478;51.740;-1.314;2023-08-01T14:08:37;2;0;
36453;PMS5003;22478;51.740;-1.314;2023-08-01T14:11:05;1;1;
36453;PMS5003;22478;51.740;-1.314;2023-08-01T14:13:33;2;2;
36453;PMS5003;22478;51.740;-1.314;2023-08-01T14:16:02;0;0;
36453;PMS5003;22478;51.740;-1.314;2023-08-01T14:18:31;1;1;
36453;PMS5003;22478;51.740;-1.314;2023-08-01T14:20:58;1;1;
36453;PMS5003;22478;51.740;-1.314;2023-08-01T14:23:25;3;2;
36453;PMS5003;22478;51.740;-1.314;2023-08-01T14:25:53;2;2;
36453;PMS5003;22478;51.740;-1.314;2023-08-01T14:28:20;4;3;
36453;PMS5003;22478;51.740;-1.314;2023-08-01T14:30:47;1;1;
36453;PMS5003;22478;51.740;-1.314;2023-08-01T14:33:15;1;1;
36453;PMS5003;22478;51.740;-1.314;2023-08-01T14:35:47;2;2;
36453;PMS5003;22478;51.740;-1.314;2023-08-01T14:38:14;3;2;
36453;PMS5003;22478;51.740;-1.314;2023-08-01T14:40:41;2;2;
36453;PMS5003;22478;51.740;-1.314;2023-08-01T14:43:08;3;2;
36453;PMS5003;22478;51.740;-1.314;2023-08-01T14:45:36;1;1;
36453;PMS5003;22478;51.740;-1.314;2023-08-01T14:48:04;3;3;
36453;PMS5003;22478;51.740;-1.314;2023-08-01T14:50:31;1;1;
36453;PMS5003;22478;51.740;-1.314;2023-08-01T14:52:58;4;2;
36453;PMS5003;22478;51.740;-1.314;2023-08-01T14:55:25;5;3;
36453;PMS5003;22478;51.740;-1.314;2023-08-01T14:57:53;2;2;
36453;PMS5003;22478;51.740;-1.314;2023-08-01T15:00:20;4;2;
36453;PMS5003;22478;51.740;-1.314;2023-08-01T15:02:48;3;3;
36453;PMS5003;22478;51.740;-1.314;2023-08-01T15:05:15;1;1;
36453;PMS5003;22478;51.740;-1.314;2023-08-01T15:07:43;2;2;
36453;PMS5003;22478;51.740;-1.314;2023-08-01T15:10:11;5;3;
36453;PMS5003;22478;51.740;-1.314;2023-08-01T15:12:38;2;2;
36453;PMS5003;22478;51.740;-1.314;2023-08-01T15:15:06;4;2;
36453;PMS5003;22478;51.740;-1.314;2023-08-01T15:17:34;2;2;
36453;PMS5003;22478;51.740;-1.314;2023-08-01T15:20:01;3;2;
36453;PMS5003;22478;51.740;-1.314;2023-08-01T15:22:28;3;3;
36453;PMS5003;22478;51.740;-1.314;2023-08-01T15:24:55;3;3;
36453;PMS5003;22478;51.740;-1.314;2023-08-01T15:27:22;3;3;
36453;PMS5003;22478;51.740;-1.314;2023-08-01T15:29:50;3;3;
36453;PMS5003;22478;51.740;-1.314;2023-08-01T15:32:17;3;3;
36453;PMS5003;22478;51.740;-1.314;2023-08-01T15:34:44;2;2;
36453;PMS5003;22478;51.740;-1.314;2023-08-01T15:37:11;1;1;
36453;PMS5003;22478;51.740;-1.314;2023-08-01T15:39:38;2;0;
36453;PMS5003;22478;51.740;-1.314;2023-08-01T15:42:05;2;2;
36453;PMS5003;22478;51.740;-1.314;2023-08-01T15:44:32;2;2;
36453;PMS5003;22478;51.740;-1.314;2023-08-01T15:46:59;2;2;
36453;PMS5003;22478;51.740;-1.314;2023-08-01T15:49:26;2;2;
36453;PMS5003;22478;51.740;-1.314;2023-08-01T15:51:53;1;1;
36453;PMS5003;22478;51.740;-1.314;2023-08-01T15:54:21;3;1;
36453;PMS5003;22478;51.740;-1.314;2023-08-01T15:56:48;2;2;
36453;PMS5003;22478;51.740;-1.314;2023-08-01T15:59:14;4;2;
36453;PMS5003;22478;51.740;-1.314;2023-08-01T16:01:41;2;2;
36453;PMS5003;22478;51.740;-1.314;2023-08-01T16:04:09;2;2;
36453;PMS5003;22478;51.740;-1.314;2023-08-01T16:06:36;2;2;
36453;PMS5003;22478;51.740;-1.314;2023-08-01T16:09:03;2;2;
36453;PMS5003;22478;51.740;-1.314;2023-08-01T16:11:30;2;2;
36453;PMS5003;22478;51.740;-1.314;2023-08-01T16:13:56;1;1;
36453;PMS5003;22478;51.740;-1.314;2023-08-01T16:16:23;4;2;
36453;PMS5003;22478;51.740;-1.314;2023-08-01T16:18:50;2;2;
36453;PMS5003;22478;51.740;-1.314;2023-08-01T16:21:17;1;1;
36453;PMS5003;22478;51.740;-1.314;2023-08-01T16:23:44;1;1;
36453;PMS5003;22478;51.740;-1.314;2023-08-01T16:26:11;3;3;
36453;PMS5003;22478;51.740;-1.314;2023-08-01T16:28:37;2;1;